Time;durP1;ratioP1;P1;durP2;ratioP2;P2;SDS_P1;SDS_P2;PMS_P1;PMS_P2;Temp;Humidity;BMP_temperature;BMP_pressure;BME280_temperature;BME280_humidity;BME280_pressure;Samples;Min_cycle;Max_cycle;Signal;HPM_P1;HPM_P2
2022/08/11 00:01:57;;;;;;;0.93;0.75;;;31.50;50.50;;;;;;10400309;28;20152;-34
2022/08/11 00:07:05;;;;;;;1.00;0.80;;;31.50;50.60;;;;;;10399076;28;20473;-35
2022/08/11 00:12:15;;;;;;;1.63;0.70;;;31.50;50.70;;;;;;10402350;28;20045;-34
2022/08/11 00:17:18;;;;;;;1.20;0.85;;;31.40;50.60;;;;;;10398719;28;20898;-34
2022/08/11 00:22:22;;;;;;;0.60;0.60;;;31.40;50.70;;;;;;10395989;28;20134;-36
2022/08/11 00:27:34;;;;;;;1.98;0.93;;;31.30;50.60;;;;;;10402081;28;20041;-35
2022/08/11 00:32:38;;;;;;;0.88;0.63;;;31.30;50.60;;;;;;10398310;28;20049;-36
2022/08/11 00:37:48;;;;;;;0.90;0.75;;;31.30;50.70;;;;;;10396620;28;20557;-35
2022/08/11 00:43:01;;;;;;;1.15;0.80;;;31.30;50.90;;;;;;10396723;28;20398;-34
2022/08/11 00:48:10;;;;;;;1.85;0.70;;;31.20;50.70;;;;;;10398433;28;20041;-36
2022/08/11 00:53:45;;;;;;;1.23;0.70;;;31.20;50.80;;;;;;10399887;28;20126;-36
2022/08/11 00:59:20;;;;;;;1.23;0.80;;;31.20;50.80;;;;;;10398947;28;20108;-36
2022/08/11 01:04:53;;;;;;;0.90;0.50;;;31.10;50.80;;;;;;10398084;28;20119;-35
2022/08/11 01:10:11;;;;;;;1.50;0.70;;;31.10;50.80;;;;;;10395708;28;20071;-38
2022/08/11 01:15:41;;;;;;;1.17;0.93;;;31.00;50.70;;;;;;10398675;28;20053;-37
2022/08/11 01:21:13;;;;;;;0.80;0.73;;;31.00;50.90;;;;;;10398321;28;20045;-35
2022/08/11 01:26:59;;;;;;;1.08;0.50;;;30.90;50.80;;;;;;10396485;28;20037;-36
2022/08/11 01:32:45;;;;;;;0.73;0.57;;;30.90;50.80;;;;;;10397404;28;20041;-36
2022/08/11 01:38:25;;;;;;;0.63;0.60;;;30.90;50.90;;;;;;10398671;28;20132;-35
2022/08/11 01:49:34;;;;;;;1.75;0.90;;;30.70;50.90;;;;;;10391579;28;20465;-35
2022/08/11 01:54:47;;;;;;;1.30;0.65;;;30.70;50.80;;;;;;10396669;28;20085;-35
2022/08/11 01:59:52;;;;;;;2.88;0.63;;;30.70;50.90;;;;;;10399042;28;20065;-35
2022/08/11 02:04:59;;;;;;;0.75;0.75;;;30.70;50.90;;;;;;10397050;28;20863;-35
2022/08/11 02:15:42;;;;;;;1.35;1.00;;;30.60;51.00;;;;;;10397980;28;20041;-36
2022/08/11 02:26:18;;;;;;;1.27;0.90;;;30.50;50.90;;;;;;10396943;28;20490;-35
2022/08/11 02:36:54;;;;;;;3.28;0.90;;;30.40;50.90;;;;;;10395637;28;20429;-36
2022/08/11 02:42:22;;;;;;;1.48;0.82;;;30.40;50.80;;;;;;10397010;28;20057;-36
2022/08/11 02:47:37;;;;;;;0.65;0.65;;;30.40;50.90;;;;;;10395538;28;20100;-35
2022/08/11 02:52:47;;;;;;;1.08;0.93;;;30.40;50.80;;;;;;10398537;28;20046;-36
2022/08/11 02:57:57;;;;;;;1.05;0.80;;;30.40;50.80;;;;;;10405657;28;20081;-36
2022/08/11 03:03:16;;;;;;;1.67;0.70;;;30.30;50.80;;;;;;10403680;28;20185;-35
2022/08/11 03:08:30;;;;;;;1.17;0.88;;;30.30;50.90;;;;;;10403155;28;20049;-35
2022/08/11 03:19:08;;;;;;;1.10;1.00;;;30.20;50.80;;;;;;10401688;28;20057;-35
2022/08/11 03:24:18;;;;;;;0.60;0.60;;;30.20;50.80;;;;;;10403321;28;20136;-36
2022/08/11 03:29:30;;;;;;;0.98;0.80;;;30.20;50.80;;;;;;10403026;28;20085;-36
2022/08/11 03:34:36;;;;;;;0.70;0.60;;;30.10;50.70;;;;;;10401137;28;20049;-36
2022/08/11 03:39:48;;;;;;;0.73;0.73;;;30.10;50.80;;;;;;10403259;28;20076;-34
2022/08/11 03:45:05;;;;;;;0.75;0.70;;;30.10;50.80;;;;;;10403621;28;20046;-36
2022/08/11 03:50:23;;;;;;;1.25;1.05;;;30.10;50.80;;;;;;10401483;28;20092;-35
2022/08/11 03:55:42;;;;;;;1.38;0.68;;;30.00;50.80;;;;;;10403066;28;20063;-35
2022/08/11 04:01:21;;;;;;;1.55;0.70;;;30.00;50.80;;;;;;10402430;28;20061;-36
2022/08/11 04:06:52;;;;;;;1.00;0.70;;;29.90;50.70;;;;;;10396047;28;20050;-34
2022/08/11 04:12:38;;;;;;;1.63;0.88;;;29.90;50.80;;;;;;10399730;28;20054;-36
2022/08/11 04:18:05;;;;;;;1.00;0.60;;;29.90;50.80;;;;;;10379837;28;20777;-35
2022/08/11 04:23:23;;;;;;;0.70;0.60;;;29.80;50.80;;;;;;10385261;28;20053;-36
2022/08/11 04:28:44;;;;;;;0.77;0.75;;;29.80;50.90;;;;;;10367016;28;20179;-36
2022/08/11 04:34:09;;;;;;;1.10;0.93;;;29.70;51.00;;;;;;10374372;28;20080;-36
2022/08/11 04:39:25;;;;;;;1.55;1.10;;;29.70;50.80;;;;;;10387652;28;20056;-34
2022/08/11 04:45:17;;;;;;;1.02;0.85;;;29.60;50.80;;;;;;10383714;28;20103;-35
2022/08/11 05:01:41;;;;;;;2.17;1.10;;;29.60;50.50;;;;;;10386096;28;20053;-32
2022/08/11 05:07:20;;;;;;;2.38;1.20;;;29.60;50.40;;;;;;10378286;28;20042;-35
2022/08/11 05:12:41;;;;;;;2.95;1.20;;;29.60;50.30;;;;;;10388756;28;20449;-37
2022/08/11 06:00:45;;;;;;;3.33;1.20;;;29.60;49.70;;;;;;10371635;28;20049;-37
2022/08/11 06:05:47;;;;;;;2.28;1.30;;;29.60;49.80;;;;;;10394486;28;20057;-37
2022/08/11 06:10:49;;;;;;;1.65;1.13;;;29.50;49.70;;;;;;10383021;28;20049;-37
2022/08/11 06:15:54;;;;;;;2.38;1.00;;;29.60;49.80;;;;;;10375101;28;20038;-37
2022/08/11 06:20:59;;;;;;;5.28;2.45;;;29.60;49.70;;;;;;10374830;28;20041;-37
2022/08/11 06:26:01;;;;;;;2.33;1.73;;;28.60;50.40;;;;;;10368600;28;20053;-35
2022/08/11 06:31:12;;;;;;;6.15;1.95;;;28.20;51.10;;;;;;10389502;28;20518;-37
2022/08/11 06:36:16;;;;;;;;;;;28.50;50.70;;;;;;10394299;28;20137;-37
2022/08/11 06:41:30;;;;;;;5.38;2.78;;;28.90;49.90;;;;;;10393043;28;19924;-37
2022/08/11 06:46:37;;;;;;;4.32;1.40;;;29.20;49.70;;;;;;10389238;28;20159;-38
2022/08/11 06:51:39;;;;;;;2.40;1.30;;;29.30;49.50;;;;;;10389415;28;20088;-38
2022/08/11 07:02:07;;;;;;;1.38;1.00;;;29.60;49.10;;;;;;10386401;28;20038;-35
2022/08/11 07:29:25;;;;;;;2.05;1.30;;;29.80;48.80;;;;;;10375487;28;20509;-36
2022/08/11 07:34:32;;;;;;;2.42;1.20;;;29.80;48.80;;;;;;10382496;28;20084;-37
2022/08/11 07:39:37;;;;;;;2.65;1.90;;;29.90;48.90;;;;;;10386130;28;20037;-37
2022/08/11 07:55:24;;;;;;;1.88;1.05;;;30.00;48.80;;;;;;10384751;28;20050;-39
2022/08/11 08:21:51;;;;;;;1.42;1.10;;;30.00;48.70;;;;;;10388684;28;20072;-38
2022/08/11 08:26:59;;;;;;;1.92;1.20;;;29.90;48.50;;;;;;10377970;28;20393;-35
2022/08/11 08:32:02;;;;;;;1.73;1.20;;;30.00;48.50;;;;;;10390743;28;20120;-36
2022/08/11 08:37:07;;;;;;;2.30;1.30;;;30.10;48.50;;;;;;10391342;28;20140;-36
2022/08/11 08:42:13;;;;;;;2.72;1.30;;;30.10;48.90;;;;;;10381782;28;20077;-35
2022/08/11 08:47:17;;;;;;;3.15;1.58;;;30.10;49.00;;;;;;10381328;28;20052;-36
2022/08/11 08:52:23;;;;;;;2.53;1.60;;;30.10;48.40;;;;;;10385654;28;20049;-36
2022/08/11 08:57:28;;;;;;;3.97;1.70;;;30.10;48.50;;;;;;10385038;28;20654;-36
2022/08/11 09:02:30;;;;;;;2.70;1.42;;;30.30;48.10;;;;;;10381512;28;20570;-37
2022/08/11 09:07:39;;;;;;;2.50;1.73;;;30.20;48.30;;;;;;10381016;28;20509;-36
2022/08/11 09:12:42;;;;;;;6.68;2.00;;;30.30;48.00;;;;;;10384282;28;20799;-37
2022/08/11 09:17:46;;;;;;;12.30;3.00;;;30.30;48.00;;;;;;10382481;28;20142;-37
2022/08/11 09:28:11;;;;;;;4.95;1.83;;;30.50;47.70;;;;;;10376896;28;20053;-36
2022/08/11 09:33:15;;;;;;;8.57;2.58;;;30.50;47.70;;;;;;10383595;28;20041;-36
2022/08/11 09:49:05;;;;;;;4.93;2.95;;;30.70;47.50;;;;;;10377756;28;20037;-36
2022/08/11 09:54:08;;;;;;;7.88;1.73;;;30.80;47.10;;;;;;10380262;28;20482;-36
2022/08/11 09:59:10;;;;;;;4.75;1.90;;;30.80;47.50;;;;;;10378702;28;20203;-36
2022/08/11 10:04:17;;;;;;;4.95;2.13;;;30.90;46.10;;;;;;10380553;28;20517;-36
2022/08/11 10:09:23;;;;;;;4.32;2.00;;;31.00;46.80;;;;;;10389682;28;20063;-35
2022/08/11 10:19:47;;;;;;;3.38;1.80;;;31.20;45.60;;;;;;10394789;28;20045;-36
2022/08/11 10:35:32;;;;;;;2.53;1.65;;;31.50;46.40;;;;;;10389182;28;20168;-36
2022/08/11 10:40:38;;;;;;;2.78;1.67;;;31.40;45.90;;;;;;10401551;28;20482;-36
2022/08/11 10:51:16;;;;;;;3.92;2.08;;;31.60;44.60;;;;;;10390734;28;20741;-37
2022/08/11 11:01:42;;;;;;;3.53;1.50;;;31.60;45.40;;;;;;10390508;28;20136;-33
2022/08/11 11:06:52;;;;;;;3.78;1.50;;;31.70;45.70;;;;;;10390363;28;20428;-37
2022/08/11 11:22:51;;;;;;;8.15;1.92;;;31.90;44.70;;;;;;10387671;28;21318;-38
2022/08/11 11:28:10;;;;;;;5.07;1.70;;;31.90;44.90;;;;;;10387891;28;20059;-36
2022/08/11 11:33:20;;;;;;;4.88;1.90;;;32.00;44.90;;;;;;10390081;28;20132;-36
2022/08/11 11:38:22;;;;;;;5.18;1.77;;;31.90;45.60;;;;;;10390893;28;20045;-37
2022/08/11 11:43:25;;;;;;;10.02;2.85;;;32.10;45.70;;;;;;10389232;28;20109;-36
2022/08/11 11:48:28;;;;;;;4.40;1.73;;;32.20;44.60;;;;;;10398684;28;20073;-36
2022/08/11 11:53:30;;;;;;;3.90;1.67;;;32.20;45.20;;;;;;10387043;28;20147;-37
2022/08/11 12:03:55;;;;;;;8.45;1.60;;;32.20;45.40;;;;;;10398299;28;20087;-36
2022/08/11 12:08:59;;;;;;;4.22;1.50;;;32.30;45.80;;;;;;10377460;28;20037;-35
2022/08/11 12:14:04;;;;;;;6.55;1.85;;;32.30;45.30;;;;;;10396859;28;20176;-36
2022/08/11 12:19:10;;;;;;;6.45;1.58;;;32.30;45.70;;;;;;10382363;28;20049;-37
2022/08/11 12:29:33;;;;;;;4.43;1.40;;;32.30;46.30;;;;;;10393542;28;20046;-37
2022/08/11 12:34:36;;;;;;;2.55;1.50;;;32.30;46.10;;;;;;10376334;28;20401;-38
2022/08/11 13:06:30;;;;;;;11.07;1.75;;;32.60;46.50;;;;;;10387535;28;20041;-37
2022/08/11 13:22:17;;;;;;;1.63;1.40;;;32.80;46.70;;;;;;10379182;28;20037;-37
2022/08/11 13:27:19;;;;;;;2.50;1.25;;;32.80;47.10;;;;;;10386511;28;20076;-37
2022/08/11 13:32:25;;;;;;;5.50;1.23;;;32.90;47.10;;;;;;10386222;28;20037;-37
2022/08/11 13:37:27;;;;;;;2.90;1.50;;;33.00;47.00;;;;;;10384663;28;20045;-36
2022/08/11 13:42:29;;;;;;;2.53;1.77;;;33.10;47.10;;;;;;10384272;28;20053;-37
2022/08/11 13:47:33;;;;;;;3.58;1.08;;;33.30;47.20;;;;;;10380576;28;20442;-37
2022/08/11 13:52:38;;;;;;;3.35;1.70;;;33.30;47.40;;;;;;10390429;28;20057;-36
2022/08/11 13:57:40;;;;;;;2.75;1.15;;;33.30;47.20;;;;;;10379753;28;20053;-37
2022/08/11 14:02:45;;;;;;;4.03;1.65;;;33.40;47.40;;;;;;10394609;28;20145;-35
2022/08/11 14:07:51;;;;;;;14.25;2.80;;;33.50;47.80;;;;;;10381524;28;20041;-36
2022/08/11 14:18:22;;;;;;;5.65;1.63;;;33.70;48.50;;;;;;10393512;28;20045;-34
2022/08/11 14:23:27;;;;;;;3.55;1.60;;;33.80;48.70;;;;;;10383775;28;20490;-36
2022/08/11 14:28:32;;;;;;;4.70;1.55;;;33.90;49.00;;;;;;10377118;28;20973;-33
2022/08/11 14:33:37;;;;;;;8.95;1.38;;;33.90;49.00;;;;;;10393102;28;20045;-36
2022/08/11 14:38:40;;;;;;;2.03;1.15;;;34.00;49.10;;;;;;10381883;28;20083;-36
2022/08/11 14:49:04;;;;;;;3.97;1.85;;;34.20;49.60;;;;;;10379074;28;20053;-35
2022/08/11 14:59:24;;;;;;;4.70;1.80;;;34.40;50.10;;;;;;10349256;28;20057;-36
2022/08/11 15:04:27;;;;;;;5.45;1.30;;;34.60;50.50;;;;;;10388959;28;20046;-35
2022/08/11 15:09:29;;;;;;;4.90;1.85;;;34.50;50.30;;;;;;10377300;28;20156;-36
2022/08/11 15:25:13;;;;;;;4.90;1.88;;;34.70;51.00;;;;;;10387403;28;20057;-34
2022/08/11 15:46:23;;;;;;;3.85;1.65;;;34.90;50.90;;;;;;10386366;28;20045;-36
2022/08/11 15:51:36;;;;;;;4.43;1.70;;;34.70;50.70;;;;;;10384096;28;20073;-35
2022/08/11 15:56:42;;;;;;;2.50;1.20;;;34.90;51.20;;;;;;10388713;28;20076;-35
2022/08/11 16:07:10;;;;;;;5.28;1.42;;;35.20;51.70;;;;;;10376072;28;20069;-34
2022/08/11 16:12:15;;;;;;;4.15;1.52;;;35.30;52.90;;;;;;10378869;28;20049;-36
2022/08/11 16:17:20;;;;;;;5.88;1.30;;;35.50;54.30;;;;;;10388823;28;20187;-36
2022/08/11 16:22:33;;;;;;;3.83;1.65;;;35.60;55.50;;;;;;10388197;28;20214;-35
2022/08/11 16:27:40;;;;;;;3.35;1.42;;;35.70;55.70;;;;;;10376172;28;20054;-36
2022/08/11 16:32:46;;;;;;;2.50;1.60;;;35.90;57.30;;;;;;10395264;28;20140;-37
2022/08/11 16:48:37;;;;;;;6.88;1.60;;;35.90;55.00;;;;;;10382824;28;20397;-35
2022/08/11 16:53:43;;;;;;;5.57;1.08;;;36.10;56.80;;;;;;10376890;28;20060;-35
2022/08/11 17:15:01;;;;;;;3.55;1.08;;;36.30;58.30;;;;;;10380186;28;20089;-34
2022/08/11 17:20:08;;;;;;;1.77;1.08;;;36.50;58.60;;;;;;10392034;28;20065;-34
2022/08/11 17:25:13;;;;;;;4.20;1.17;;;36.40;57.50;;;;;;10373743;28;20403;-35
2022/08/11 17:30:16;;;;;;;1.25;0.90;;;36.40;58.30;;;;;;10375642;28;20068;-36
2022/08/11 17:35:30;;;;;;;3.42;0.98;;;36.30;56.90;;;;;;10380813;28;20093;-34
2022/08/11 17:40:37;;;;;;;1.20;1.00;;;36.30;57.40;;;;;;10378381;28;20182;-37
2022/08/11 17:51:01;;;;;;;2.92;1.30;;;36.30;56.90;;;;;;10378528;28;20042;-37
2022/08/11 18:01:27;;;;;;;1.48;0.90;;;36.30;57.50;;;;;;10388463;28;20041;-36
2022/08/11 18:06:31;;;;;;;1.38;0.98;;;36.30;55.60;;;;;;10370255;28;20159;-36
